FIN7PR LKPR-EFHK
Flight info
| Callsign | FIN7PR |
|---|---|
| Flight time | 2h 1m |
| Altitude | 36000 |
| Route | DCT VENOX DCT DEKOV Y621 GARKI DCT POGAB DCT IDOBA/N0444F380 DCT RENKI/N0442F390 L132 DEMUR DCT GORPI DCT VSB DCT ALAMI DCT OKEVU DCT EVADI Y370 DIVAM DCT |
| Aircraft | A320/M-SDE3FGHIRWY/LB1 |
Departure
| Time | 2026-04-26 07:13 |
|---|---|
| Airport | Václav Havel Airport Prague (LKPR) |
Arrival
| Time | 2026-04-26 09:14 |
|---|---|
| Airport | Helsinki Vantaa Airport (EFHK) |
| Time | Latitude | Longitude | Altitude | Speed | Heading |
|---|---|---|---|---|---|
| 2026-04-26 06:43 | 50.10391 | 14.26692 | 1174 ft | 0 kts | 34° |
| 2026-04-26 07:05 | 50.10389 | 14.26690 | 1174 ft | 2 kts | 34° |
| 2026-04-26 07:05 | 50.10369 | 14.26665 | 1171 ft | 4 kts | 56° |
| 2026-04-26 07:06 | 50.10364 | 14.26634 | 1170 ft | 3 kts | 123° |
| 2026-04-26 07:06 | 50.10372 | 14.26615 | 1170 ft | 1 kts | 125° |
| 2026-04-26 07:06 | 50.10372 | 14.26614 | 1170 ft | 0 kts | 125° |
| 2026-04-26 07:08 | 50.10370 | 14.26617 | 1171 ft | 1 kts | 133° |
| 2026-04-26 07:08 | 50.10352 | 14.26615 | 1170 ft | 5 kts | 193° |
| 2026-04-26 07:08 | 50.10313 | 14.26582 | 1171 ft | 8 kts | 213° |
| 2026-04-26 07:08 | 50.10258 | 14.26533 | 1176 ft | 10 kts | 195° |
| 2026-04-26 07:09 | 50.10202 | 14.26592 | 1176 ft | 12 kts | 127° |
| 2026-04-26 07:09 | 50.10147 | 14.26706 | 1177 ft | 14 kts | 127° |
| 2026-04-26 07:09 | 50.10089 | 14.26826 | 1186 ft | 13 kts | 127° |
| 2026-04-26 07:09 | 50.10039 | 14.26930 | 1193 ft | 11 kts | 127° |
| 2026-04-26 07:10 | 50.09828 | 14.27350 | 1203 ft | 24 kts | 135° |
| 2026-04-26 07:11 | 50.09646 | 14.27630 | 1209 ft | 11 kts | 142° |
| 2026-04-26 07:11 | 50.09579 | 14.27613 | 1212 ft | 11 kts | 215° |
| 2026-04-26 07:11 | 50.09510 | 14.27533 | 1213 ft | 15 kts | 217° |
| 2026-04-26 07:11 | 50.09434 | 14.27445 | 1210 ft | 9 kts | 217° |
| 2026-04-26 07:12 | 50.09425 | 14.27385 | 1209 ft | 7 kts | 293° |
| 2026-04-26 07:12 | 50.09466 | 14.27295 | 1207 ft | 16 kts | 306° |
| 2026-04-26 07:12 | 50.09664 | 14.26886 | 1208 ft | 84 kts | 307° |
| 2026-04-26 07:12 | 50.10152 | 14.25881 | 1193 ft | 146 kts | 307° |
| 2026-04-26 07:13 | 50.10801 | 14.24590 | 1803 ft | 150 kts | 309° |
| 2026-04-26 07:13 | 50.11432 | 14.23300 | 2536 ft | 158 kts | 308° |
| 2026-04-26 07:13 | 50.12163 | 14.21820 | 2850 ft | 184 kts | 309° |
| 2026-04-26 07:13 | 50.12995 | 14.20153 | 3232 ft | 207 kts | 310° |
| 2026-04-26 07:14 | 50.13926 | 14.18254 | 3674 ft | 233 kts | 308° |
| 2026-04-26 07:14 | 50.14931 | 14.16133 | 4327 ft | 248 kts | 309° |
| 2026-04-26 07:14 | 50.15964 | 14.13952 | 5313 ft | 252 kts | 309° |
| 2026-04-26 07:14 | 50.17006 | 14.11740 | 6319 ft | 254 kts | 309° |
| 2026-04-26 07:15 | 50.18039 | 14.09507 | 7277 ft | 255 kts | 308° |
| 2026-04-26 07:15 | 50.19086 | 14.07274 | 8268 ft | 254 kts | 309° |
| 2026-04-26 07:15 | 50.20150 | 14.05061 | 9245 ft | 255 kts | 309° |
| 2026-04-26 07:15 | 50.21226 | 14.02858 | 10209 ft | 256 kts | 309° |
| 2026-04-26 07:16 | 50.21971 | 14.01419 | 10712 ft | 260 kts | 316° |
| 2026-04-26 07:16 | 50.23418 | 13.99768 | 11592 ft | 259 kts | 332° |
| 2026-04-26 07:16 | 50.25170 | 13.98851 | 12091 ft | 280 kts | 348° |
| 2026-04-26 07:16 | 50.27209 | 13.98670 | 12364 ft | 305 kts | 354° |
| 2026-04-26 07:17 | 50.29349 | 13.98538 | 13076 ft | 310 kts | 354° |
| 2026-04-26 07:17 | 50.31525 | 13.98405 | 13849 ft | 315 kts | 354° |
| 2026-04-26 07:17 | 50.33727 | 13.98344 | 14566 ft | 321 kts | 359° |
| 2026-04-26 07:17 | 50.35955 | 13.98950 | 15267 ft | 330 kts | 11° |
| 2026-04-26 07:18 | 50.38108 | 14.00334 | 15985 ft | 338 kts | 19° |
| 2026-04-26 07:18 | 50.40237 | 14.01927 | 16694 ft | 341 kts | 19° |
| 2026-04-26 07:18 | 50.42387 | 14.03535 | 17396 ft | 344 kts | 19° |
| 2026-04-26 07:18 | 50.44557 | 14.05162 | 18084 ft | 347 kts | 19° |
| 2026-04-26 07:19 | 50.46745 | 14.06806 | 18736 ft | 351 kts | 19° |
| 2026-04-26 07:19 | 50.48957 | 14.08468 | 19341 ft | 354 kts | 19° |
| 2026-04-26 07:19 | 50.51186 | 14.10143 | 19940 ft | 357 kts | 19° |
| 2026-04-26 07:19 | 50.53435 | 14.11831 | 20527 ft | 360 kts | 19° |
| 2026-04-26 07:20 | 50.55755 | 14.13284 | 21093 ft | 357 kts | 10° |
| 2026-04-26 07:20 | 50.58180 | 14.14051 | 21673 ft | 356 kts | 4° |
| 2026-04-26 07:20 | 50.60643 | 14.14642 | 22259 ft | 360 kts | 4° |
| 2026-04-26 07:20 | 50.63127 | 14.15234 | 22848 ft | 363 kts | 4° |
| 2026-04-26 07:21 | 50.65639 | 14.15834 | 23403 ft | 367 kts | 4° |
| 2026-04-26 07:21 | 50.68172 | 14.16438 | 23946 ft | 370 kts | 4° |
| 2026-04-26 07:21 | 50.70725 | 14.17044 | 24378 ft | 372 kts | 4° |
| 2026-04-26 07:21 | 50.73301 | 14.17657 | 24863 ft | 375 kts | 4° |
| 2026-04-26 07:22 | 50.75889 | 14.18275 | 25321 ft | 377 kts | 4° |
| 2026-04-26 07:22 | 50.78463 | 14.18892 | 25739 ft | 380 kts | 4° |
| 2026-04-26 07:22 | 50.81091 | 14.19526 | 26150 ft | 384 kts | 4° |
| 2026-04-26 07:22 | 50.83745 | 14.20169 | 26532 ft | 387 kts | 4° |
| 2026-04-26 07:23 | 50.86429 | 14.20816 | 26898 ft | 391 kts | 4° |
| 2026-04-26 07:23 | 50.89139 | 14.21344 | 27281 ft | 392 kts | 358° |
| 2026-04-26 07:23 | 50.91855 | 14.21183 | 27675 ft | 390 kts | 349° |
| 2026-04-26 07:23 | 50.94556 | 14.20592 | 28089 ft | 393 kts | 348° |
| 2026-04-26 07:24 | 50.97272 | 14.19993 | 28500 ft | 395 kts | 348° |
| 2026-04-26 07:24 | 50.99999 | 14.19391 | 28886 ft | 397 kts | 348° |
| 2026-04-26 07:24 | 51.02747 | 14.18784 | 29256 ft | 400 kts | 348° |
| 2026-04-26 07:24 | 51.05517 | 14.18177 | 29615 ft | 403 kts | 348° |
| 2026-04-26 07:25 | 51.08301 | 14.17576 | 29965 ft | 406 kts | 349° |
| 2026-04-26 07:25 | 51.11112 | 14.17003 | 30309 ft | 408 kts | 349° |
| 2026-04-26 07:25 | 51.13941 | 14.16447 | 30590 ft | 411 kts | 349° |
| 2026-04-26 07:25 | 51.16786 | 14.15898 | 30862 ft | 413 kts | 349° |
| 2026-04-26 07:26 | 51.19644 | 14.15349 | 31179 ft | 414 kts | 349° |
| 2026-04-26 07:26 | 51.22510 | 14.14794 | 31491 ft | 415 kts | 349° |
| 2026-04-26 07:26 | 51.25371 | 14.14228 | 31849 ft | 414 kts | 349° |
| 2026-04-26 07:26 | 51.28183 | 14.13666 | 32231 ft | 412 kts | 349° |
| 2026-04-26 07:27 | 51.31030 | 14.13095 | 32603 ft | 411 kts | 349° |
| 2026-04-26 07:27 | 51.33868 | 14.12526 | 32962 ft | 411 kts | 349° |
| 2026-04-26 07:27 | 51.36700 | 14.11958 | 33328 ft | 410 kts | 349° |
| 2026-04-26 07:27 | 51.39523 | 14.11368 | 33682 ft | 409 kts | 348° |
| 2026-04-26 07:28 | 51.42334 | 14.10661 | 34051 ft | 408 kts | 347° |
| 2026-04-26 07:28 | 51.45116 | 14.09869 | 34463 ft | 405 kts | 346° |
| 2026-04-26 07:28 | 51.47875 | 14.09036 | 34856 ft | 402 kts | 346° |
| 2026-04-26 07:28 | 51.50615 | 14.08197 | 35187 ft | 401 kts | 346° |
| 2026-04-26 07:29 | 51.53359 | 14.07365 | 35488 ft | 401 kts | 346° |
| 2026-04-26 07:29 | 51.56102 | 14.06557 | 35776 ft | 400 kts | 347° |
| 2026-04-26 07:29 | 51.58847 | 14.05773 | 36042 ft | 401 kts | 347° |
| 2026-04-26 07:29 | 51.61591 | 14.04997 | 36302 ft | 401 kts | 347° |
| 2026-04-26 07:30 | 51.64335 | 14.04214 | 36559 ft | 400 kts | 347° |
| 2026-04-26 07:30 | 51.67080 | 14.03430 | 36816 ft | 400 kts | 347° |
| 2026-04-26 07:30 | 51.69817 | 14.02643 | 37116 ft | 399 kts | 347° |
| 2026-04-26 07:30 | 51.72543 | 14.01857 | 37434 ft | 397 kts | 347° |
| 2026-04-26 07:31 | 51.75258 | 14.01069 | 37698 ft | 396 kts | 347° |
| 2026-04-26 07:31 | 51.77973 | 14.00280 | 37922 ft | 396 kts | 347° |
| 2026-04-26 07:31 | 51.80685 | 13.99497 | 38142 ft | 396 kts | 347° |
| 2026-04-26 07:31 | 51.83411 | 13.98819 | 38361 ft | 398 kts | 352° |
| 2026-04-26 07:32 | 51.86191 | 13.98792 | 38557 ft | 402 kts | 1° |
| 2026-04-26 07:32 | 51.88978 | 13.99365 | 38750 ft | 404 kts | 3° |
| 2026-04-26 07:32 | 51.91759 | 13.99986 | 38926 ft | 404 kts | 3° |
| 2026-04-26 07:32 | 51.94538 | 14.00599 | 39133 ft | 403 kts | 3° |
| 2026-04-26 07:33 | 51.97314 | 14.01207 | 39237 ft | 402 kts | 3° |
| 2026-04-26 07:33 | 52.02850 | 14.02418 | 39268 ft | 401 kts | 3° |
| 2026-04-26 07:34 | 52.08379 | 14.03636 | 39260 ft | 401 kts | 3° |
| 2026-04-26 07:34 | 52.13912 | 14.04861 | 39268 ft | 401 kts | 3° |
| 2026-04-26 07:35 | 52.19437 | 14.06088 | 39269 ft | 399 kts | 3° |
| 2026-04-26 07:35 | 52.24890 | 14.07292 | 39264 ft | 397 kts | 3° |
| 2026-04-26 07:36 | 52.30374 | 14.08480 | 39271 ft | 396 kts | 360° |
| 2026-04-26 07:36 | 52.35802 | 14.07961 | 39272 ft | 390 kts | 349° |
| 2026-04-26 07:37 | 52.41194 | 14.06812 | 39271 ft | 390 kts | 349° |
| 2026-04-26 07:37 | 52.46582 | 14.05685 | 39271 ft | 390 kts | 349° |
| 2026-04-26 07:38 | 52.51967 | 14.04563 | 39271 ft | 390 kts | 349° |
| 2026-04-26 07:38 | 52.57357 | 14.03424 | 39272 ft | 391 kts | 349° |
| 2026-04-26 07:39 | 52.62751 | 14.02279 | 39269 ft | 391 kts | 349° |
| 2026-04-26 07:39 | 52.68152 | 14.01130 | 39270 ft | 391 kts | 349° |
| 2026-04-26 07:40 | 52.73549 | 13.99984 | 39271 ft | 391 kts | 349° |
| 2026-04-26 07:40 | 52.78947 | 13.98846 | 39274 ft | 391 kts | 349° |
| 2026-04-26 07:41 | 52.84349 | 13.97694 | 39278 ft | 391 kts | 349° |
| 2026-04-26 07:41 | 52.89799 | 13.97431 | 39276 ft | 399 kts | 5° |
| 2026-04-26 07:42 | 52.95031 | 14.00616 | 39296 ft | 414 kts | 26° |
| 2026-04-26 07:42 | 52.99722 | 14.06295 | 39292 ft | 418 kts | 30° |
| 2026-04-26 07:43 | 53.04385 | 14.12051 | 39287 ft | 418 kts | 30° |
| 2026-04-26 07:43 | 53.09048 | 14.17842 | 39281 ft | 418 kts | 30° |
| 2026-04-26 07:44 | 53.13707 | 14.23652 | 39274 ft | 418 kts | 30° |
| 2026-04-26 07:44 | 53.18369 | 14.29464 | 39297 ft | 417 kts | 30° |
| 2026-04-26 07:45 | 53.22984 | 14.35233 | 39285 ft | 417 kts | 30° |
| 2026-04-26 07:45 | 53.27684 | 14.40869 | 39277 ft | 411 kts | 22° |
| 2026-04-26 07:46 | 53.32817 | 14.44798 | 39269 ft | 404 kts | 17° |
| 2026-04-26 07:46 | 53.37976 | 14.48555 | 39282 ft | 404 kts | 17° |
| 2026-04-26 07:47 | 53.43111 | 14.52333 | 39275 ft | 402 kts | 17° |
| 2026-04-26 07:47 | 53.48238 | 14.56101 | 39266 ft | 402 kts | 17° |
| 2026-04-26 07:48 | 53.53372 | 14.59880 | 39260 ft | 403 kts | 17° |
| 2026-04-26 07:48 | 53.58507 | 14.63677 | 39260 ft | 403 kts | 17° |
| 2026-04-26 07:49 | 53.63603 | 14.67453 | 39284 ft | 403 kts | 17° |
| 2026-04-26 07:49 | 53.68732 | 14.71259 | 39275 ft | 402 kts | 17° |
| 2026-04-26 07:50 | 53.76372 | 14.76961 | 39260 ft | 399 kts | 16° |
| 2026-04-26 07:50 | 53.81457 | 14.80752 | 39258 ft | 399 kts | 16° |
| 2026-04-26 07:51 | 53.86537 | 14.84557 | 39293 ft | 399 kts | 16° |
| 2026-04-26 07:51 | 53.91616 | 14.88377 | 39287 ft | 399 kts | 16° |
| 2026-04-26 07:52 | 53.96693 | 14.92203 | 39281 ft | 399 kts | 16° |
| 2026-04-26 07:52 | 54.01766 | 14.96043 | 39277 ft | 399 kts | 16° |
| 2026-04-26 07:53 | 54.06841 | 14.99894 | 39273 ft | 399 kts | 16° |
| 2026-04-26 07:53 | 54.11898 | 15.03732 | 39272 ft | 397 kts | 16° |
| 2026-04-26 07:54 | 54.16912 | 15.07534 | 39264 ft | 397 kts | 16° |
| 2026-04-26 07:54 | 54.21963 | 15.11372 | 39267 ft | 397 kts | 16° |
| 2026-04-26 07:55 | 54.27012 | 15.15224 | 39272 ft | 397 kts | 16° |
| 2026-04-26 07:55 | 54.32057 | 15.19085 | 39285 ft | 397 kts | 16° |
| 2026-04-26 07:56 | 54.37083 | 15.22942 | 39266 ft | 395 kts | 16° |
| 2026-04-26 07:56 | 54.42102 | 15.26799 | 39261 ft | 395 kts | 16° |
| 2026-04-26 07:57 | 54.47122 | 15.30668 | 39257 ft | 395 kts | 16° |
| 2026-04-26 07:57 | 54.52142 | 15.34539 | 39257 ft | 395 kts | 16° |
| 2026-04-26 07:58 | 54.57162 | 15.38440 | 39286 ft | 395 kts | 16° |
| 2026-04-26 07:58 | 54.62174 | 15.42345 | 39273 ft | 395 kts | 16° |
| 2026-04-26 07:59 | 54.67154 | 15.46229 | 39270 ft | 395 kts | 16° |
| 2026-04-26 07:59 | 54.72158 | 15.50137 | 39258 ft | 395 kts | 16° |
| 2026-04-26 08:00 | 54.77164 | 15.54053 | 39254 ft | 395 kts | 16° |
| 2026-04-26 08:00 | 54.82135 | 15.58146 | 39270 ft | 401 kts | 22° |
| 2026-04-26 08:01 | 54.86883 | 15.63284 | 39259 ft | 402 kts | 24° |
| 2026-04-26 08:01 | 54.91592 | 15.68525 | 39249 ft | 402 kts | 24° |
| 2026-04-26 08:02 | 54.95508 | 15.72899 | 39244 ft | 402 kts | 24° |
| 2026-04-26 08:02 | 55.00221 | 15.78147 | 39237 ft | 402 kts | 24° |
| 2026-04-26 08:03 | 55.04942 | 15.83388 | 39233 ft | 402 kts | 24° |
| 2026-04-26 08:03 | 55.09655 | 15.88636 | 39231 ft | 402 kts | 24° |
| 2026-04-26 08:04 | 55.14369 | 15.93904 | 39229 ft | 402 kts | 24° |
| 2026-04-26 08:04 | 55.19080 | 15.99193 | 39228 ft | 402 kts | 24° |
| 2026-04-26 08:05 | 55.23790 | 16.04489 | 39229 ft | 402 kts | 24° |
| 2026-04-26 08:05 | 55.28507 | 16.09803 | 39243 ft | 403 kts | 24° |
| 2026-04-26 08:06 | 55.33225 | 16.15146 | 39233 ft | 403 kts | 24° |
| 2026-04-26 08:06 | 55.37938 | 16.20504 | 39222 ft | 404 kts | 24° |
| 2026-04-26 08:07 | 55.42657 | 16.25875 | 39218 ft | 404 kts | 24° |
| 2026-04-26 08:07 | 55.47380 | 16.31260 | 39211 ft | 404 kts | 24° |
| 2026-04-26 08:08 | 55.52096 | 16.36663 | 39230 ft | 405 kts | 24° |
| 2026-04-26 08:08 | 55.56792 | 16.42046 | 39215 ft | 405 kts | 24° |
| 2026-04-26 08:09 | 55.61526 | 16.47497 | 39211 ft | 406 kts | 24° |
| 2026-04-26 08:09 | 55.66252 | 16.52966 | 39202 ft | 406 kts | 24° |
| 2026-04-26 08:10 | 55.70980 | 16.58435 | 39202 ft | 406 kts | 24° |
| 2026-04-26 08:10 | 55.75706 | 16.63924 | 39189 ft | 405 kts | 25° |
| 2026-04-26 08:11 | 55.80421 | 16.69415 | 39186 ft | 405 kts | 25° |
| 2026-04-26 08:11 | 55.85140 | 16.74921 | 39174 ft | 406 kts | 25° |
| 2026-04-26 08:12 | 55.89864 | 16.80445 | 39175 ft | 406 kts | 25° |
| 2026-04-26 08:12 | 55.94584 | 16.85998 | 39175 ft | 407 kts | 25° |
| 2026-04-26 08:13 | 55.99312 | 16.91597 | 39190 ft | 408 kts | 25° |
| 2026-04-26 08:13 | 56.04045 | 16.97202 | 39175 ft | 408 kts | 25° |
| 2026-04-26 08:14 | 56.08778 | 17.02812 | 39174 ft | 408 kts | 25° |
| 2026-04-26 08:14 | 56.13520 | 17.08440 | 39167 ft | 409 kts | 25° |
| 2026-04-26 08:15 | 56.18255 | 17.14093 | 39169 ft | 409 kts | 25° |
| 2026-04-26 08:15 | 56.22993 | 17.19765 | 39172 ft | 410 kts | 25° |
| 2026-04-26 08:16 | 56.27738 | 17.25462 | 39167 ft | 410 kts | 25° |
| 2026-04-26 08:16 | 56.32489 | 17.31178 | 39161 ft | 411 kts | 25° |
| 2026-04-26 08:17 | 56.37247 | 17.36922 | 39159 ft | 412 kts | 25° |
| 2026-04-26 08:17 | 56.42002 | 17.42697 | 39156 ft | 412 kts | 25° |
| 2026-04-26 08:18 | 56.46762 | 17.48477 | 39176 ft | 412 kts | 26° |
| 2026-04-26 08:18 | 56.51521 | 17.54273 | 39152 ft | 413 kts | 26° |
| 2026-04-26 08:19 | 56.56247 | 17.60050 | 39157 ft | 413 kts | 26° |
| 2026-04-26 08:19 | 56.61004 | 17.65881 | 39178 ft | 413 kts | 26° |
| 2026-04-26 08:20 | 56.65756 | 17.71731 | 39156 ft | 413 kts | 26° |
| 2026-04-26 08:20 | 56.70517 | 17.77598 | 39139 ft | 413 kts | 26° |
| 2026-04-26 08:21 | 56.75279 | 17.83492 | 39135 ft | 414 kts | 26° |
| 2026-04-26 08:21 | 56.80041 | 17.89407 | 39130 ft | 415 kts | 26° |
| 2026-04-26 08:22 | 56.84814 | 17.95356 | 39134 ft | 415 kts | 26° |
| 2026-04-26 08:22 | 56.89581 | 18.01315 | 39126 ft | 415 kts | 26° |
| 2026-04-26 08:23 | 56.94346 | 18.07296 | 39140 ft | 415 kts | 27° |
| 2026-04-26 08:23 | 56.99114 | 18.13292 | 39129 ft | 416 kts | 27° |
| 2026-04-26 08:24 | 57.03885 | 18.19305 | 39120 ft | 416 kts | 27° |
| 2026-04-26 08:24 | 57.08625 | 18.25300 | 39102 ft | 416 kts | 27° |
| 2026-04-26 08:25 | 57.13401 | 18.31355 | 39108 ft | 417 kts | 27° |
| 2026-04-26 08:25 | 57.18174 | 18.37428 | 39104 ft | 417 kts | 28° |
| 2026-04-26 08:26 | 57.22954 | 18.43534 | 39102 ft | 418 kts | 28° |
| 2026-04-26 08:26 | 57.27733 | 18.49664 | 39096 ft | 418 kts | 28° |
| 2026-04-26 08:27 | 57.32514 | 18.55821 | 39097 ft | 419 kts | 28° |
| 2026-04-26 08:27 | 57.37298 | 18.61986 | 39091 ft | 419 kts | 28° |
| 2026-04-26 08:28 | 57.42080 | 18.68173 | 39087 ft | 419 kts | 28° |
| 2026-04-26 08:28 | 57.46862 | 18.74379 | 39083 ft | 419 kts | 28° |
| 2026-04-26 08:29 | 57.51637 | 18.80594 | 39086 ft | 419 kts | 28° |
| 2026-04-26 08:29 | 57.56412 | 18.86839 | 39076 ft | 419 kts | 28° |
| 2026-04-26 08:30 | 57.61179 | 18.93098 | 39100 ft | 419 kts | 29° |
| 2026-04-26 08:30 | 57.65955 | 18.99380 | 39089 ft | 420 kts | 29° |
| 2026-04-26 08:31 | 57.70731 | 19.05683 | 39081 ft | 420 kts | 30° |
| 2026-04-26 08:31 | 57.75502 | 19.12013 | 39074 ft | 421 kts | 30° |
| 2026-04-26 08:32 | 57.80277 | 19.18362 | 39062 ft | 421 kts | 30° |
| 2026-04-26 08:32 | 57.85055 | 19.24714 | 39054 ft | 421 kts | 30° |
| 2026-04-26 08:33 | 57.89847 | 19.31108 | 39066 ft | 423 kts | 30° |
| 2026-04-26 08:33 | 57.94648 | 19.37545 | 39050 ft | 424 kts | 30° |
| 2026-04-26 08:34 | 57.99457 | 19.44021 | 39044 ft | 425 kts | 31° |
| 2026-04-26 08:34 | 58.04270 | 19.50536 | 39034 ft | 426 kts | 31° |
| 2026-04-26 08:35 | 58.09079 | 19.57065 | 39045 ft | 426 kts | 31° |
| 2026-04-26 08:35 | 58.13899 | 19.63613 | 39046 ft | 427 kts | 31° |
| 2026-04-26 08:36 | 58.18691 | 19.70152 | 39043 ft | 428 kts | 31° |
| 2026-04-26 08:36 | 58.23518 | 19.76756 | 39031 ft | 428 kts | 31° |
| 2026-04-26 08:37 | 58.28345 | 19.83392 | 39039 ft | 428 kts | 31° |
| 2026-04-26 08:37 | 58.33175 | 19.90060 | 39027 ft | 429 kts | 31° |
| 2026-04-26 08:38 | 58.38013 | 19.96749 | 39028 ft | 430 kts | 32° |
| 2026-04-26 08:38 | 58.42857 | 20.03470 | 39018 ft | 431 kts | 32° |
| 2026-04-26 08:39 | 58.47703 | 20.10215 | 38999 ft | 431 kts | 32° |
| 2026-04-26 08:39 | 58.52553 | 20.17001 | 38999 ft | 432 kts | 32° |
| 2026-04-26 08:40 | 58.57401 | 20.23811 | 39022 ft | 432 kts | 32° |
| 2026-04-26 08:40 | 58.62244 | 20.30644 | 39013 ft | 432 kts | 32° |
| 2026-04-26 08:41 | 58.67083 | 20.37482 | 39002 ft | 432 kts | 32° |
| 2026-04-26 08:41 | 58.71919 | 20.44325 | 38996 ft | 431 kts | 32° |
| 2026-04-26 08:42 | 58.76750 | 20.51194 | 38991 ft | 431 kts | 32° |
| 2026-04-26 08:42 | 58.81570 | 20.58086 | 39008 ft | 431 kts | 32° |
| 2026-04-26 08:43 | 58.86385 | 20.64991 | 38990 ft | 431 kts | 32° |
| 2026-04-26 08:43 | 58.91202 | 20.71929 | 38984 ft | 431 kts | 32° |
| 2026-04-26 08:44 | 58.95989 | 20.78832 | 38951 ft | 432 kts | 33° |
| 2026-04-26 08:44 | 59.00807 | 20.85806 | 38951 ft | 433 kts | 33° |
| 2026-04-26 08:45 | 59.05298 | 20.93653 | 38951 ft | 441 kts | 47° |
| 2026-04-26 08:45 | 59.08094 | 21.02022 | 38952 ft | 446 kts | 54° |
| 2026-04-26 08:46 | 59.11329 | 21.12333 | 38948 ft | 447 kts | 54° |
| 2026-04-26 08:46 | 59.14568 | 21.22675 | 38933 ft | 448 kts | 54° |
| 2026-04-26 08:47 | 59.17805 | 21.33060 | 38934 ft | 448 kts | 54° |
| 2026-04-26 08:47 | 59.21030 | 21.43471 | 38926 ft | 449 kts | 54° |
| 2026-04-26 08:48 | 59.24246 | 21.53920 | 38928 ft | 449 kts | 54° |
| 2026-04-26 08:48 | 59.27466 | 21.64374 | 38930 ft | 449 kts | 54° |
| 2026-04-26 08:49 | 59.30680 | 21.74858 | 38917 ft | 449 kts | 54° |
| 2026-04-26 08:49 | 59.33880 | 21.85378 | 38920 ft | 450 kts | 54° |
| 2026-04-26 08:50 | 59.37076 | 21.95918 | 38887 ft | 450 kts | 55° |
| 2026-04-26 08:50 | 59.40273 | 22.06499 | 38886 ft | 450 kts | 54° |
| 2026-04-26 08:51 | 59.45069 | 22.22446 | 37858 ft | 459 kts | 55° |
| 2026-04-26 08:51 | 59.46700 | 22.27879 | 36853 ft | 463 kts | 55° |
| 2026-04-26 08:52 | 59.48335 | 22.33360 | 35994 ft | 464 kts | 54° |
| 2026-04-26 08:52 | 59.49958 | 22.38835 | 35147 ft | 463 kts | 54° |
| 2026-04-26 08:52 | 59.51576 | 22.44295 | 34376 ft | 460 kts | 54° |
| 2026-04-26 08:52 | 59.53157 | 22.49642 | 33714 ft | 455 kts | 53° |
| 2026-04-26 08:53 | 59.54738 | 22.55000 | 32908 ft | 451 kts | 53° |
| 2026-04-26 08:53 | 59.56303 | 22.60314 | 32219 ft | 445 kts | 53° |
| 2026-04-26 08:53 | 59.57844 | 22.65570 | 31603 ft | 440 kts | 53° |
| 2026-04-26 08:53 | 59.59361 | 22.70757 | 31012 ft | 434 kts | 53° |
| 2026-04-26 08:54 | 59.60861 | 22.75893 | 30434 ft | 429 kts | 53° |
| 2026-04-26 08:54 | 59.62341 | 22.80968 | 29837 ft | 425 kts | 53° |
| 2026-04-26 08:54 | 59.63805 | 22.85999 | 29162 ft | 420 kts | 54° |
| 2026-04-26 08:54 | 59.65191 | 22.91058 | 28512 ft | 417 kts | 57° |
| 2026-04-26 08:55 | 59.66460 | 22.96195 | 27890 ft | 414 kts | 58° |
| 2026-04-26 08:55 | 59.67654 | 23.01360 | 27265 ft | 410 kts | 59° |
| 2026-04-26 08:55 | 59.68807 | 23.06492 | 26683 ft | 406 kts | 60° |
| 2026-04-26 08:55 | 59.69949 | 23.11585 | 25880 ft | 405 kts | 60° |
| 2026-04-26 08:56 | 59.71120 | 23.16714 | 24766 ft | 414 kts | 60° |
| 2026-04-26 08:56 | 59.72330 | 23.21929 | 23771 ft | 419 kts | 60° |
| 2026-04-26 08:56 | 59.73561 | 23.27197 | 22717 ft | 421 kts | 60° |
| 2026-04-26 08:56 | 59.74797 | 23.32471 | 21658 ft | 423 kts | 61° |
| 2026-04-26 08:57 | 59.76030 | 23.37737 | 20955 ft | 417 kts | 61° |
| 2026-04-26 08:57 | 59.77236 | 23.42919 | 20340 ft | 410 kts | 60° |
| 2026-04-26 08:57 | 59.78418 | 23.48025 | 19719 ft | 404 kts | 62° |
| 2026-04-26 08:57 | 59.79580 | 23.53067 | 19135 ft | 399 kts | 62° |
| 2026-04-26 08:58 | 59.80708 | 23.57978 | 18590 ft | 393 kts | 61° |
| 2026-04-26 08:58 | 59.81837 | 23.62900 | 18058 ft | 388 kts | 62° |
| 2026-04-26 08:58 | 59.82950 | 23.67748 | 17503 ft | 383 kts | 63° |
| 2026-04-26 08:58 | 59.84049 | 23.72538 | 16991 ft | 378 kts | 65° |
| 2026-04-26 08:59 | 59.85129 | 23.77259 | 16528 ft | 372 kts | 63° |
| 2026-04-26 08:59 | 59.86188 | 23.81910 | 16088 ft | 366 kts | 62° |
| 2026-04-26 08:59 | 59.87228 | 23.86488 | 15639 ft | 360 kts | 63° |
| 2026-04-26 08:59 | 59.88249 | 23.90996 | 15207 ft | 354 kts | 63° |
| 2026-04-26 09:00 | 59.89249 | 23.95430 | 14795 ft | 348 kts | 60° |
| 2026-04-26 09:00 | 59.90235 | 23.99800 | 14416 ft | 343 kts | 62° |
| 2026-04-26 09:00 | 59.91206 | 24.04100 | 14041 ft | 337 kts | 60° |
| 2026-04-26 09:00 | 59.92158 | 24.08322 | 13696 ft | 331 kts | 62° |
| 2026-04-26 09:01 | 59.93092 | 24.12472 | 13361 ft | 325 kts | 61° |
| 2026-04-26 09:01 | 59.94007 | 24.16546 | 13003 ft | 319 kts | 61° |
| 2026-04-26 09:01 | 59.94903 | 24.20551 | 12631 ft | 313 kts | 60° |
| 2026-04-26 09:01 | 59.95783 | 24.24496 | 12214 ft | 310 kts | 60° |
| 2026-04-26 09:02 | 59.96653 | 24.28403 | 11813 ft | 306 kts | 60° |
| 2026-04-26 09:02 | 59.97509 | 24.32257 | 11423 ft | 302 kts | 59° |
| 2026-04-26 09:02 | 59.98344 | 24.36026 | 11017 ft | 299 kts | 60° |
| 2026-04-26 09:02 | 59.99191 | 24.39848 | 10608 ft | 295 kts | 60° |
| 2026-04-26 09:03 | 60.00009 | 24.43535 | 10216 ft | 292 kts | 59° |
| 2026-04-26 09:03 | 60.00825 | 24.47222 | 9850 ft | 288 kts | 59° |
| 2026-04-26 09:03 | 60.01612 | 24.50807 | 9721 ft | 276 kts | 59° |
| 2026-04-26 09:03 | 60.02372 | 24.54277 | 9452 ft | 269 kts | 58° |
| 2026-04-26 09:04 | 60.03119 | 24.57676 | 9064 ft | 266 kts | 58° |
| 2026-04-26 09:04 | 60.03861 | 24.61047 | 8653 ft | 264 kts | 58° |
| 2026-04-26 09:04 | 60.04604 | 24.64416 | 8194 ft | 263 kts | 58° |
| 2026-04-26 09:04 | 60.05338 | 24.67761 | 7771 ft | 262 kts | 58° |
| 2026-04-26 09:05 | 60.06065 | 24.71085 | 7334 ft | 260 kts | 58° |
| 2026-04-26 09:05 | 60.06788 | 24.74401 | 6905 ft | 259 kts | 58° |
| 2026-04-26 09:05 | 60.07504 | 24.77691 | 6469 ft | 258 kts | 58° |
| 2026-04-26 09:05 | 60.08219 | 24.80977 | 6051 ft | 257 kts | 58° |
| 2026-04-26 09:06 | 60.08925 | 24.84224 | 5864 ft | 255 kts | 58° |
| 2026-04-26 09:06 | 60.09633 | 24.87497 | 5519 ft | 255 kts | 58° |
| 2026-04-26 09:06 | 60.10323 | 24.90720 | 5257 ft | 246 kts | 58° |
| 2026-04-26 09:06 | 60.10972 | 24.93782 | 5126 ft | 232 kts | 57° |
| 2026-04-26 09:07 | 60.11590 | 24.96688 | 4966 ft | 222 kts | 57° |
| 2026-04-26 09:07 | 60.12193 | 24.99484 | 4835 ft | 213 kts | 55° |
| 2026-04-26 09:07 | 60.12810 | 25.02066 | 4671 ft | 197 kts | 52° |
| 2026-04-26 09:07 | 60.13411 | 25.04442 | 4451 ft | 187 kts | 51° |
| 2026-04-26 09:08 | 60.13997 | 25.06724 | 4197 ft | 181 kts | 51° |
| 2026-04-26 09:08 | 60.14553 | 25.08896 | 3918 ft | 173 kts | 50° |
| 2026-04-26 09:08 | 60.15150 | 25.10813 | 3668 ft | 149 kts | 34° |
| 2026-04-26 09:08 | 60.15928 | 25.11901 | 3473 ft | 126 kts | 14° |
| 2026-04-26 09:09 | 60.16753 | 25.12300 | 3308 ft | 120 kts | 359° |
| 2026-04-26 09:09 | 60.17568 | 25.12129 | 3155 ft | 118 kts | 345° |
| 2026-04-26 09:09 | 60.18319 | 25.11460 | 2981 ft | 118 kts | 336° |
| 2026-04-26 09:09 | 60.19048 | 25.10711 | 2803 ft | 117 kts | 336° |
| 2026-04-26 09:10 | 60.19773 | 25.09975 | 2630 ft | 116 kts | 337° |
| 2026-04-26 09:10 | 60.20495 | 25.09242 | 2462 ft | 116 kts | 337° |
| 2026-04-26 09:10 | 60.21216 | 25.08510 | 2288 ft | 116 kts | 337° |
| 2026-04-26 09:10 | 60.21935 | 25.07780 | 2124 ft | 116 kts | 336° |
| 2026-04-26 09:11 | 60.22653 | 25.07051 | 1957 ft | 115 kts | 336° |
| 2026-04-26 09:11 | 60.23368 | 25.06324 | 1797 ft | 115 kts | 336° |
| 2026-04-26 09:11 | 60.24080 | 25.05596 | 1635 ft | 115 kts | 336° |
| 2026-04-26 09:11 | 60.24790 | 25.04867 | 1486 ft | 115 kts | 336° |
| 2026-04-26 09:12 | 60.25501 | 25.04139 | 1319 ft | 115 kts | 336° |
| 2026-04-26 09:12 | 60.26210 | 25.03413 | 1159 ft | 114 kts | 336° |
| 2026-04-26 09:12 | 60.26916 | 25.02690 | 1008 ft | 114 kts | 335° |
| 2026-04-26 09:12 | 60.27636 | 25.01957 | 836 ft | 117 kts | 335° |
| 2026-04-26 09:13 | 60.28360 | 25.01228 | 725 ft | 116 kts | 334° |
| 2026-04-26 09:13 | 60.29092 | 25.00494 | 566 ft | 118 kts | 333° |
| 2026-04-26 09:13 | 60.29821 | 24.99747 | 401 ft | 117 kts | 332° |
| 2026-04-26 09:13 | 60.30538 | 24.99003 | 239 ft | 115 kts | 332° |
| 2026-04-26 09:14 | 60.31232 | 24.98292 | 166 ft | 104 kts | 333° |
| 2026-04-26 09:14 | 60.31790 | 24.97721 | 152 ft | 71 kts | 333° |
| 2026-04-26 09:14 | 60.32078 | 24.97425 | 155 ft | 27 kts | 333° |
| 2026-04-26 09:14 | 60.32222 | 24.97277 | 157 ft | 19 kts | 333° |
| 2026-04-26 09:15 | 60.32330 | 24.97165 | 160 ft | 16 kts | 333° |
| 2026-04-26 09:15 | 60.32389 | 24.97031 | 164 ft | 12 kts | 276° |
| 2026-04-26 09:15 | 60.32355 | 24.96900 | 165 ft | 8 kts | 229° |
| 2026-04-26 09:15 | 60.32316 | 24.96856 | 165 ft | 7 kts | 182° |
| 2026-04-26 09:16 | 60.32250 | 24.96906 | 165 ft | 14 kts | 153° |
| 2026-04-26 09:16 | 60.32159 | 24.97000 | 166 ft | 14 kts | 153° |
| 2026-04-26 09:16 | 60.32075 | 24.97087 | 166 ft | 13 kts | 153° |
| 2026-04-26 09:16 | 60.31987 | 24.97177 | 165 ft | 15 kts | 153° |
| 2026-04-26 09:17 | 60.31893 | 24.97275 | 162 ft | 16 kts | 153° |
| 2026-04-26 09:17 | 60.31782 | 24.97390 | 160 ft | 19 kts | 152° |
| 2026-04-26 09:17 | 60.31692 | 24.97482 | 159 ft | 11 kts | 154° |
| 2026-04-26 09:17 | 60.31636 | 24.97464 | 162 ft | 7 kts | 236° |
| 2026-04-26 09:18 | 60.31639 | 24.97403 | 165 ft | 5 kts | 301° |
| 2026-04-26 09:18 | 60.31654 | 24.97327 | 166 ft | 7 kts | 258° |
| 2026-04-26 09:18 | 60.31638 | 24.97262 | 167 ft | 4 kts | 242° |
| 2026-04-26 09:18 | 60.31634 | 24.97246 | 167 ft | 0 kts | 243° |